sensor_id;sensor_type;location;lat;lon;timestamp;P1;durP1;ratioP1;P2;durP2;ratioP2
2177;SDS011;1095;50.992;6.798;2024-03-29T00:02:27;3.90;;;2.00;;
2177;SDS011;1095;50.992;6.798;2024-03-29T00:05:03;4.50;;;2.05;;
2177;SDS011;1095;50.992;6.798;2024-03-29T00:16:34;5.20;;;2.65;;
2177;SDS011;1095;50.992;6.798;2024-03-29T00:21:56;2.85;;;1.58;;
2177;SDS011;1095;50.992;6.798;2024-03-29T00:24:22;5.32;;;1.98;;
2177;SDS011;1095;50.992;6.798;2024-03-29T00:27:35;8.43;;;2.15;;
2177;SDS011;1095;50.992;6.798;2024-03-29T00:30:11;4.72;;;2.00;;
2177;SDS011;1095;50.992;6.798;2024-03-29T00:33:11;5.32;;;2.10;;
2177;SDS011;1095;50.992;6.798;2024-03-29T00:35:45;5.55;;;2.17;;
2177;SDS011;1095;50.992;6.798;2024-03-29T00:41:41;2.60;;;1.60;;
2177;SDS011;1095;50.992;6.798;2024-03-29T00:44:07;5.82;;;2.38;;
2177;SDS011;1095;50.992;6.798;2024-03-29T00:46:36;3.15;;;1.70;;
2177;SDS011;1095;50.992;6.798;2024-03-29T00:49:02;3.78;;;1.88;;
2177;SDS011;1095;50.992;6.798;2024-03-29T00:51:30;6.50;;;2.08;;
2177;SDS011;1095;50.992;6.798;2024-03-29T00:53:55;3.72;;;1.88;;
2177;SDS011;1095;50.992;6.798;2024-03-29T00:56:21;4.05;;;1.73;;
2177;SDS011;1095;50.992;6.798;2024-03-29T00:58:47;6.60;;;1.92;;
2177;SDS011;1095;50.992;6.798;2024-03-29T01:01:13;4.38;;;1.38;;
2177;SDS011;1095;50.992;6.798;2024-03-29T01:03:39;3.92;;;3.13;;
2177;SDS011;1095;50.992;6.798;2024-03-29T01:06:30;3.88;;;1.73;;
2177;SDS011;1095;50.992;6.798;2024-03-29T01:08:56;4.18;;;1.88;;
2177;SDS011;1095;50.992;6.798;2024-03-29T01:11:37;1.70;;;1.27;;
2177;SDS011;1095;50.992;6.798;2024-03-29T01:14:31;4.85;;;1.80;;
2177;SDS011;1095;50.992;6.798;2024-03-29T01:16:57;3.58;;;1.85;;
2177;SDS011;1095;50.992;6.798;2024-03-29T01:19:30;5.22;;;2.13;;
2177;SDS011;1095;50.992;6.798;2024-03-29T01:22:06;4.40;;;2.17;;
2177;SDS011;1095;50.992;6.798;2024-03-29T01:24:36;6.50;;;2.70;;
2177;SDS011;1095;50.992;6.798;2024-03-29T01:27:04;6.10;;;2.42;;
2177;SDS011;1095;50.992;6.798;2024-03-29T01:29:34;5.15;;;2.20;;
2177;SDS011;1095;50.992;6.798;2024-03-29T01:32:07;5.03;;;2.33;;
2177;SDS011;1095;50.992;6.798;2024-03-29T01:34:38;3.97;;;2.00;;
2177;SDS011;1095;50.992;6.798;2024-03-29T01:37:21;4.60;;;2.10;;
2177;SDS011;1095;50.992;6.798;2024-03-29T01:39:58;4.90;;;2.08;;
2177;SDS011;1095;50.992;6.798;2024-03-29T01:42:42;3.40;;;1.88;;
2177;SDS011;1095;50.992;6.798;2024-03-29T01:45:16;3.70;;;2.63;;
2177;SDS011;1095;50.992;6.798;2024-03-29T01:50:21;7.43;;;2.45;;
2177;SDS011;1095;50.992;6.798;2024-03-29T01:52:49;4.05;;;2.05;;
2177;SDS011;1095;50.992;6.798;2024-03-29T01:55:22;4.82;;;2.13;;
2177;SDS011;1095;50.992;6.798;2024-03-29T01:57:54;3.47;;;2.15;;
2177;SDS011;1095;50.992;6.798;2024-03-29T02:00:24;4.83;;;1.97;;
2177;SDS011;1095;50.992;6.798;2024-03-29T02:02:53;7.60;;;2.20;;
2177;SDS011;1095;50.992;6.798;2024-03-29T02:05:23;5.00;;;2.28;;
2177;SDS011;1095;50.992;6.798;2024-03-29T02:07:54;7.55;;;2.25;;
2177;SDS011;1095;50.992;6.798;2024-03-29T02:10:22;3.78;;;1.88;;
2177;SDS011;1095;50.992;6.798;2024-03-29T02:12:57;5.28;;;2.10;;
2177;SDS011;1095;50.992;6.798;2024-03-29T02:15:27;3.25;;;1.70;;
2177;SDS011;1095;50.992;6.798;2024-03-29T02:21:27;3.95;;;2.03;;
2177;SDS011;1095;50.992;6.798;2024-03-29T02:24:42;5.60;;;2.13;;
2177;SDS011;1095;50.992;6.798;2024-03-29T02:27:42;5.40;;;2.33;;
2177;SDS011;1095;50.992;6.798;2024-03-29T02:33:16;4.53;;;1.92;;
2177;SDS011;1095;50.992;6.798;2024-03-29T02:36:20;8.18;;;2.17;;
2177;SDS011;1095;50.992;6.798;2024-03-29T02:39:07;4.53;;;1.75;;
2177;SDS011;1095;50.992;6.798;2024-03-29T02:41:48;4.60;;;2.10;;
2177;SDS011;1095;50.992;6.798;2024-03-29T02:50:47;6.30;;;2.20;;
2177;SDS011;1095;50.992;6.798;2024-03-29T02:57:00;9.30;;;2.55;;
2177;SDS011;1095;50.992;6.798;2024-03-29T02:59:53;6.95;;;2.10;;
2177;SDS011;1095;50.992;6.798;2024-03-29T03:02:24;3.28;;;2.10;;
2177;SDS011;1095;50.992;6.798;2024-03-29T03:05:03;3.80;;;2.05;;
2177;SDS011;1095;50.992;6.798;2024-03-29T03:07:49;7.63;;;2.20;;
2177;SDS011;1095;50.992;6.798;2024-03-29T03:23:14;4.25;;;2.10;;
2177;SDS011;1095;50.992;6.798;2024-03-29T03:26:06;3.72;;;2.30;;
2177;SDS011;1095;50.992;6.798;2024-03-29T03:29:00;5.97;;;2.05;;
2177;SDS011;1095;50.992;6.798;2024-03-29T03:31:49;6.03;;;2.70;;
2177;SDS011;1095;50.992;6.798;2024-03-29T03:34:20;3.13;;;1.77;;
2177;SDS011;1095;50.992;6.798;2024-03-29T03:36:50;4.47;;;2.20;;
2177;SDS011;1095;50.992;6.798;2024-03-29T03:39:18;5.03;;;2.10;;
2177;SDS011;1095;50.992;6.798;2024-03-29T03:41:47;5.57;;;2.65;;
2177;SDS011;1095;50.992;6.798;2024-03-29T03:44:15;5.85;;;2.47;;
2177;SDS011;1095;50.992;6.798;2024-03-29T03:46:41;7.18;;;2.33;;
2177;SDS011;1095;50.992;6.798;2024-03-29T03:49:07;2.92;;;2.13;;
2177;SDS011;1095;50.992;6.798;2024-03-29T03:51:33;5.50;;;2.42;;
2177;SDS011;1095;50.992;6.798;2024-03-29T03:54:02;3.78;;;2.03;;
2177;SDS011;1095;50.992;6.798;2024-03-29T03:56:29;5.13;;;2.00;;
2177;SDS011;1095;50.992;6.798;2024-03-29T03:58:55;3.80;;;2.28;;
2177;SDS011;1095;50.992;6.798;2024-03-29T04:01:21;5.95;;;2.53;;
2177;SDS011;1095;50.992;6.798;2024-03-29T04:03:49;3.50;;;2.20;;
2177;SDS011;1095;50.992;6.798;2024-03-29T04:06:15;5.75;;;2.70;;
2177;SDS011;1095;50.992;6.798;2024-03-29T04:08:43;5.93;;;2.50;;
2177;SDS011;1095;50.992;6.798;2024-03-29T04:11:09;4.63;;;2.88;;
2177;SDS011;1095;50.992;6.798;2024-03-29T04:13:37;5.47;;;2.55;;
2177;SDS011;1095;50.992;6.798;2024-03-29T04:16:04;4.07;;;2.53;;
2177;SDS011;1095;50.992;6.798;2024-03-29T04:18:32;4.07;;;2.28;;
2177;SDS011;1095;50.992;6.798;2024-03-29T04:20:58;5.65;;;2.65;;
2177;SDS011;1095;50.992;6.798;2024-03-29T04:23:24;5.72;;;2.72;;
2177;SDS011;1095;50.992;6.798;2024-03-29T04:25:53;6.53;;;2.60;;
2177;SDS011;1095;50.992;6.798;2024-03-29T04:28:20;4.15;;;2.20;;
2177;SDS011;1095;50.992;6.798;2024-03-29T04:30:51;5.22;;;2.40;;
2177;SDS011;1095;50.992;6.798;2024-03-29T04:33:21;6.95;;;2.35;;
2177;SDS011;1095;50.992;6.798;2024-03-29T04:35:51;6.90;;;2.85;;
2177;SDS011;1095;50.992;6.798;2024-03-29T04:40:46;4.85;;;2.35;;
2177;SDS011;1095;50.992;6.798;2024-03-29T04:43:13;5.00;;;2.30;;
2177;SDS011;1095;50.992;6.798;2024-03-29T04:45:40;3.65;;;2.15;;
2177;SDS011;1095;50.992;6.798;2024-03-29T04:48:08;7.85;;;2.95;;
2177;SDS011;1095;50.992;6.798;2024-03-29T04:50:34;3.60;;;2.22;;
2177;SDS011;1095;50.992;6.798;2024-03-29T04:53:01;6.28;;;2.80;;
2177;SDS011;1095;50.992;6.798;2024-03-29T04:55:28;8.50;;;2.90;;
2177;SDS011;1095;50.992;6.798;2024-03-29T04:57:54;4.88;;;2.65;;
2177;SDS011;1095;50.992;6.798;2024-03-29T05:00:21;6.25;;;3.10;;
2177;SDS011;1095;50.992;6.798;2024-03-29T05:02:48;4.18;;;2.78;;
2177;SDS011;1095;50.992;6.798;2024-03-29T05:05:16;5.97;;;2.75;;
2177;SDS011;1095;50.992;6.798;2024-03-29T05:07:42;4.00;;;2.38;;
2177;SDS011;1095;50.992;6.798;2024-03-29T05:10:09;4.13;;;2.65;;
2177;SDS011;1095;50.992;6.798;2024-03-29T05:12:36;4.28;;;2.50;;
2177;SDS011;1095;50.992;6.798;2024-03-29T05:15:03;5.68;;;2.88;;
2177;SDS011;1095;50.992;6.798;2024-03-29T05:17:30;7.63;;;2.97;;
2177;SDS011;1095;50.992;6.798;2024-03-29T05:19:57;4.80;;;2.70;;
2177;SDS011;1095;50.992;6.798;2024-03-29T05:22:25;8.85;;;2.67;;
2177;SDS011;1095;50.992;6.798;2024-03-29T05:24:52;5.20;;;2.58;;
2177;SDS011;1095;50.992;6.798;2024-03-29T05:27:19;6.65;;;3.03;;
2177;SDS011;1095;50.992;6.798;2024-03-29T05:29:46;5.05;;;3.22;;
2177;SDS011;1095;50.992;6.798;2024-03-29T05:32:13;7.53;;;3.40;;
2177;SDS011;1095;50.992;6.798;2024-03-29T05:34:39;6.47;;;3.20;;
2177;SDS011;1095;50.992;6.798;2024-03-29T05:37:06;5.35;;;2.95;;
2177;SDS011;1095;50.992;6.798;2024-03-29T05:39:34;12.25;;;3.60;;
2177;SDS011;1095;50.992;6.798;2024-03-29T05:42:01;8.60;;;2.97;;
2177;SDS011;1095;50.992;6.798;2024-03-29T05:44:27;7.97;;;3.50;;
2177;SDS011;1095;50.992;6.798;2024-03-29T05:46:54;8.00;;;3.35;;
2177;SDS011;1095;50.992;6.798;2024-03-29T05:49:26;7.68;;;2.92;;
2177;SDS011;1095;50.992;6.798;2024-03-29T05:51:53;5.43;;;3.00;;
2177;SDS011;1095;50.992;6.798;2024-03-29T05:54:20;6.45;;;3.10;;
2177;SDS011;1095;50.992;6.798;2024-03-29T05:56:49;7.43;;;3.05;;
2177;SDS011;1095;50.992;6.798;2024-03-29T05:59:15;5.60;;;2.78;;
2177;SDS011;1095;50.992;6.798;2024-03-29T06:01:42;8.32;;;3.25;;
2177;SDS011;1095;50.992;6.798;2024-03-29T06:04:09;7.25;;;3.03;;
2177;SDS011;1095;50.992;6.798;2024-03-29T06:06:40;3.83;;;2.58;;
2177;SDS011;1095;50.992;6.798;2024-03-29T06:09:08;5.22;;;2.92;;
2177;SDS011;1095;50.992;6.798;2024-03-29T06:11:37;5.30;;;2.85;;
2177;SDS011;1095;50.992;6.798;2024-03-29T06:14:05;7.28;;;2.95;;
2177;SDS011;1095;50.992;6.798;2024-03-29T06:16:49;7.90;;;3.22;;
2177;SDS011;1095;50.992;6.798;2024-03-29T06:19:33;7.95;;;3.03;;
2177;SDS011;1095;50.992;6.798;2024-03-29T06:22:00;3.90;;;2.70;;
2177;SDS011;1095;50.992;6.798;2024-03-29T06:24:26;4.88;;;3.10;;
2177;SDS011;1095;50.992;6.798;2024-03-29T06:26:53;5.45;;;2.90;;
2177;SDS011;1095;50.992;6.798;2024-03-29T06:29:21;4.65;;;2.83;;
2177;SDS011;1095;50.992;6.798;2024-03-29T06:31:48;9.23;;;4.82;;
2177;SDS011;1095;50.992;6.798;2024-03-29T06:34:14;8.05;;;5.43;;
2177;SDS011;1095;50.992;6.798;2024-03-29T06:36:41;6.30;;;3.05;;
2177;SDS011;1095;50.992;6.798;2024-03-29T06:39:08;5.25;;;2.80;;
2177;SDS011;1095;50.992;6.798;2024-03-29T06:41:35;8.63;;;6.40;;
2177;SDS011;1095;50.992;6.798;2024-03-29T06:44:02;6.15;;;3.97;;
2177;SDS011;1095;50.992;6.798;2024-03-29T06:46:30;6.78;;;5.80;;
2177;SDS011;1095;50.992;6.798;2024-03-29T06:48:59;7.93;;;5.15;;
2177;SDS011;1095;50.992;6.798;2024-03-29T06:51:26;9.02;;;3.50;;
2177;SDS011;1095;50.992;6.798;2024-03-29T06:53:52;4.93;;;3.00;;
2177;SDS011;1095;50.992;6.798;2024-03-29T06:56:19;5.80;;;3.13;;
2177;SDS011;1095;50.992;6.798;2024-03-29T06:58:46;6.72;;;3.33;;
2177;SDS011;1095;50.992;6.798;2024-03-29T07:01:12;5.70;;;3.47;;
2177;SDS011;1095;50.992;6.798;2024-03-29T07:03:40;4.43;;;2.72;;
2177;SDS011;1095;50.992;6.798;2024-03-29T07:06:07;7.00;;;4.80;;
2177;SDS011;1095;50.992;6.798;2024-03-29T07:08:34;7.60;;;3.38;;
2177;SDS011;1095;50.992;6.798;2024-03-29T07:11:02;4.47;;;2.90;;
2177;SDS011;1095;50.992;6.798;2024-03-29T07:13:29;4.05;;;3.42;;
2177;SDS011;1095;50.992;6.798;2024-03-29T07:15:57;10.88;;;5.15;;
2177;SDS011;1095;50.992;6.798;2024-03-29T07:18:23;8.75;;;4.40;;
2177;SDS011;1095;50.992;6.798;2024-03-29T07:20:51;9.05;;;5.78;;
2177;SDS011;1095;50.992;6.798;2024-03-29T07:23:18;7.00;;;4.75;;
2177;SDS011;1095;50.992;6.798;2024-03-29T07:25:56;7.97;;;5.55;;
2177;SDS011;1095;50.992;6.798;2024-03-29T07:28:24;9.63;;;8.23;;
2177;SDS011;1095;50.992;6.798;2024-03-29T07:30:50;11.15;;;7.80;;
2177;SDS011;1095;50.992;6.798;2024-03-29T07:33:18;6.15;;;4.85;;
2177;SDS011;1095;50.992;6.798;2024-03-29T07:35:46;6.78;;;4.60;;
2177;SDS011;1095;50.992;6.798;2024-03-29T07:38:14;4.90;;;3.13;;
2177;SDS011;1095;50.992;6.798;2024-03-29T07:40:42;3.90;;;2.40;;
2177;SDS011;1095;50.992;6.798;2024-03-29T07:43:08;3.35;;;2.63;;
2177;SDS011;1095;50.992;6.798;2024-03-29T07:45:38;5.78;;;3.03;;
2177;SDS011;1095;50.992;6.798;2024-03-29T07:48:06;5.75;;;4.35;;
2177;SDS011;1095;50.992;6.798;2024-03-29T07:50:33;4.65;;;3.28;;
2177;SDS011;1095;50.992;6.798;2024-03-29T07:52:59;4.97;;;3.03;;
2177;SDS011;1095;50.992;6.798;2024-03-29T07:55:27;3.70;;;2.65;;
2177;SDS011;1095;50.992;6.798;2024-03-29T07:57:54;4.97;;;2.50;;
2177;SDS011;1095;50.992;6.798;2024-03-29T08:00:21;9.80;;;7.38;;
2177;SDS011;1095;50.992;6.798;2024-03-29T08:02:48;4.57;;;3.00;;
2177;SDS011;1095;50.992;6.798;2024-03-29T08:05:15;4.90;;;3.38;;
2177;SDS011;1095;50.992;6.798;2024-03-29T08:07:42;2.72;;;2.42;;
2177;SDS011;1095;50.992;6.798;2024-03-29T08:10:12;6.45;;;4.63;;
2177;SDS011;1095;50.992;6.798;2024-03-29T08:12:40;6.07;;;4.05;;
2177;SDS011;1095;50.992;6.798;2024-03-29T08:15:07;3.25;;;2.40;;
2177;SDS011;1095;50.992;6.798;2024-03-29T08:17:34;4.05;;;2.05;;
2177;SDS011;1095;50.992;6.798;2024-03-29T08:20:01;3.22;;;2.45;;
2177;SDS011;1095;50.992;6.798;2024-03-29T08:22:28;6.60;;;2.70;;
2177;SDS011;1095;50.992;6.798;2024-03-29T08:24:57;2.80;;;1.98;;
2177;SDS011;1095;50.992;6.798;2024-03-29T08:27:24;3.03;;;2.15;;
2177;SDS011;1095;50.992;6.798;2024-03-29T08:29:52;4.50;;;2.05;;
2177;SDS011;1095;50.992;6.798;2024-03-29T08:32:19;2.80;;;1.75;;
2177;SDS011;1095;50.992;6.798;2024-03-29T08:34:46;2.90;;;2.10;;
2177;SDS011;1095;50.992;6.798;2024-03-29T08:37:13;3.45;;;1.67;;
2177;SDS011;1095;50.992;6.798;2024-03-29T08:39:39;1.52;;;1.35;;
2177;SDS011;1095;50.992;6.798;2024-03-29T08:42:06;3.78;;;1.52;;
2177;SDS011;1095;50.992;6.798;2024-03-29T08:44:36;1.52;;;1.42;;
2177;SDS011;1095;50.992;6.798;2024-03-29T08:47:04;1.50;;;1.15;;
2177;SDS011;1095;50.992;6.798;2024-03-29T08:49:32;2.28;;;1.40;;
2177;SDS011;1095;50.992;6.798;2024-03-29T08:51:59;1.30;;;1.20;;
2177;SDS011;1095;50.992;6.798;2024-03-29T08:54:29;1.75;;;1.45;;
2177;SDS011;1095;50.992;6.798;2024-03-29T08:56:56;4.05;;;1.85;;
2177;SDS011;1095;50.992;6.798;2024-03-29T08:59:23;1.80;;;1.45;;
2177;SDS011;1095;50.992;6.798;2024-03-29T09:01:50;2.88;;;1.55;;
2177;SDS011;1095;50.992;6.798;2024-03-29T09:04:19;2.30;;;1.15;;
2177;SDS011;1095;50.992;6.798;2024-03-29T09:06:47;2.40;;;1.50;;
2177;SDS011;1095;50.992;6.798;2024-03-29T09:09:13;3.67;;;1.52;;
2177;SDS011;1095;50.992;6.798;2024-03-29T09:11:40;1.92;;;1.40;;
2177;SDS011;1095;50.992;6.798;2024-03-29T09:14:07;2.13;;;1.30;;
2177;SDS011;1095;50.992;6.798;2024-03-29T09:16:34;1.52;;;1.17;;
2177;SDS011;1095;50.992;6.798;2024-03-29T09:19:01;2.35;;;1.52;;
2177;SDS011;1095;50.992;6.798;2024-03-29T09:21:31;1.98;;;1.08;;
2177;SDS011;1095;50.992;6.798;2024-03-29T09:23:58;1.55;;;1.20;;
2177;SDS011;1095;50.992;6.798;2024-03-29T09:26:24;2.05;;;1.33;;
2177;SDS011;1095;50.992;6.798;2024-03-29T09:28:51;2.67;;;1.60;;
2177;SDS011;1095;50.992;6.798;2024-03-29T09:31:18;2.80;;;1.35;;
2177;SDS011;1095;50.992;6.798;2024-03-29T09:33:44;1.95;;;1.23;;
2177;SDS011;1095;50.992;6.798;2024-03-29T09:36:29;2.72;;;1.60;;
2177;SDS011;1095;50.992;6.798;2024-03-29T09:39:42;3.38;;;1.70;;
2177;SDS011;1095;50.992;6.798;2024-03-29T09:45:07;1.90;;;1.35;;
2177;SDS011;1095;50.992;6.798;2024-03-29T09:47:36;3.40;;;1.60;;
2177;SDS011;1095;50.992;6.798;2024-03-29T09:50:05;1.55;;;1.30;;
2177;SDS011;1095;50.992;6.798;2024-03-29T09:52:36;2.72;;;1.10;;
2177;SDS011;1095;50.992;6.798;2024-03-29T09:55:04;2.13;;;1.30;;
2177;SDS011;1095;50.992;6.798;2024-03-29T09:57:32;4.63;;;1.35;;
2177;SDS011;1095;50.992;6.798;2024-03-29T09:59:58;5.78;;;1.88;;
2177;SDS011;1095;50.992;6.798;2024-03-29T10:02:26;3.13;;;1.65;;
2177;SDS011;1095;50.992;6.798;2024-03-29T10:04:56;2.25;;;1.30;;
2177;SDS011;1095;50.992;6.798;2024-03-29T10:07:27;3.00;;;1.33;;
2177;SDS011;1095;50.992;6.798;2024-03-29T10:09:56;2.35;;;1.30;;
2177;SDS011;1095;50.992;6.798;2024-03-29T10:12:24;1.50;;;1.10;;
2177;SDS011;1095;50.992;6.798;2024-03-29T10:14:50;1.25;;;1.15;;
2177;SDS011;1095;50.992;6.798;2024-03-29T10:17:20;2.33;;;1.20;;
2177;SDS011;1095;50.992;6.798;2024-03-29T10:19:47;1.38;;;1.27;;
2177;SDS011;1095;50.992;6.798;2024-03-29T10:22:14;2.17;;;1.38;;
2177;SDS011;1095;50.992;6.798;2024-03-29T10:24:41;3.88;;;1.77;;
2177;SDS011;1095;50.992;6.798;2024-03-29T10:27:09;2.05;;;1.35;;
2177;SDS011;1095;50.992;6.798;2024-03-29T10:29:36;2.17;;;1.10;;
2177;SDS011;1095;50.992;6.798;2024-03-29T10:32:03;2.88;;;1.40;;
2177;SDS011;1095;50.992;6.798;2024-03-29T10:34:30;4.13;;;1.95;;
2177;SDS011;1095;50.992;6.798;2024-03-29T10:36:59;1.88;;;1.08;;
2177;SDS011;1095;50.992;6.798;2024-03-29T10:39:28;1.73;;;1.27;;
2177;SDS011;1095;50.992;6.798;2024-03-29T10:41:55;2.00;;;1.33;;
2177;SDS011;1095;50.992;6.798;2024-03-29T10:44:24;1.88;;;1.45;;
2177;SDS011;1095;50.992;6.798;2024-03-29T10:46:53;5.10;;;1.33;;
2177;SDS011;1095;50.992;6.798;2024-03-29T10:49:22;3.63;;;1.50;;
2177;SDS011;1095;50.992;6.798;2024-03-29T10:51:50;2.83;;;1.13;;
2177;SDS011;1095;50.992;6.798;2024-03-29T10:54:17;1.20;;;1.02;;
2177;SDS011;1095;50.992;6.798;2024-03-29T10:56:46;1.42;;;0.95;;
2177;SDS011;1095;50.992;6.798;2024-03-29T10:59:20;1.38;;;1.08;;
2177;SDS011;1095;50.992;6.798;2024-03-29T11:01:51;3.90;;;1.92;;
2177;SDS011;1095;50.992;6.798;2024-03-29T11:04:22;1.85;;;1.60;;
2177;SDS011;1095;50.992;6.798;2024-03-29T11:06:52;2.85;;;1.17;;
2177;SDS011;1095;50.992;6.798;2024-03-29T11:09:23;2.10;;;1.40;;
2177;SDS011;1095;50.992;6.798;2024-03-29T11:11:54;3.17;;;1.48;;
2177;SDS011;1095;50.992;6.798;2024-03-29T11:14:23;0.88;;;0.82;;
2177;SDS011;1095;50.992;6.798;2024-03-29T11:16:56;8.75;;;1.55;;
2177;SDS011;1095;50.992;6.798;2024-03-29T11:19:23;4.30;;;1.50;;
2177;SDS011;1095;50.992;6.798;2024-03-29T11:21:51;2.22;;;1.20;;
2177;SDS011;1095;50.992;6.798;2024-03-29T11:24:18;1.42;;;1.00;;
2177;SDS011;1095;50.992;6.798;2024-03-29T11:26:45;3.20;;;1.58;;
2177;SDS011;1095;50.992;6.798;2024-03-29T11:29:17;3.00;;;1.10;;
2177;SDS011;1095;50.992;6.798;2024-03-29T11:31:45;2.00;;;1.20;;
2177;SDS011;1095;50.992;6.798;2024-03-29T11:34:13;1.52;;;1.00;;
2177;SDS011;1095;50.992;6.798;2024-03-29T11:36:40;1.52;;;1.08;;
2177;SDS011;1095;50.992;6.798;2024-03-29T11:39:07;1.50;;;1.10;;
2177;SDS011;1095;50.992;6.798;2024-03-29T11:41:34;2.67;;;1.23;;
2177;SDS011;1095;50.992;6.798;2024-03-29T11:44:00;3.13;;;1.42;;
2177;SDS011;1095;50.992;6.798;2024-03-29T11:46:28;2.05;;;1.58;;
2177;SDS011;1095;50.992;6.798;2024-03-29T11:48:58;2.05;;;1.13;;
2177;SDS011;1095;50.992;6.798;2024-03-29T11:51:27;3.45;;;1.90;;
2177;SDS011;1095;50.992;6.798;2024-03-29T11:53:53;2.35;;;1.63;;
2177;SDS011;1095;50.992;6.798;2024-03-29T11:56:20;2.50;;;1.23;;
2177;SDS011;1095;50.992;6.798;2024-03-29T11:58:47;1.83;;;1.30;;
2177;SDS011;1095;50.992;6.798;2024-03-29T12:01:14;4.70;;;1.35;;
2177;SDS011;1095;50.992;6.798;2024-03-29T12:03:42;1.33;;;0.93;;
2177;SDS011;1095;50.992;6.798;2024-03-29T12:06:10;2.53;;;1.55;;
2177;SDS011;1095;50.992;6.798;2024-03-29T12:08:39;1.33;;;1.05;;
2177;SDS011;1095;50.992;6.798;2024-03-29T12:11:07;2.58;;;1.13;;
2177;SDS011;1095;50.992;6.798;2024-03-29T12:13:34;1.42;;;1.20;;
2177;SDS011;1095;50.992;6.798;2024-03-29T12:16:01;1.08;;;0.90;;
2177;SDS011;1095;50.992;6.798;2024-03-29T12:18:29;1.08;;;0.95;;
2177;SDS011;1095;50.992;6.798;2024-03-29T12:20:57;2.33;;;1.60;;
2177;SDS011;1095;50.992;6.798;2024-03-29T12:23:24;1.92;;;1.20;;
2177;SDS011;1095;50.992;6.798;2024-03-29T12:25:53;1.00;;;0.80;;
2177;SDS011;1095;50.992;6.798;2024-03-29T12:28:22;0.63;;;0.57;;
2177;SDS011;1095;50.992;6.798;2024-03-29T12:30:49;0.43;;;0.43;;
2177;SDS011;1095;50.992;6.798;2024-03-29T12:33:17;0.73;;;0.40;;
2177;SDS011;1095;50.992;6.798;2024-03-29T12:35:45;1.90;;;0.45;;
2177;SDS011;1095;50.992;6.798;2024-03-29T12:38:15;2.30;;;1.10;;
2177;SDS011;1095;50.992;6.798;2024-03-29T12:40:43;0.70;;;0.70;;
2177;SDS011;1095;50.992;6.798;2024-03-29T12:43:15;2.92;;;1.05;;
2177;SDS011;1095;50.992;6.798;2024-03-29T12:48:12;1.40;;;0.70;;
2177;SDS011;1095;50.992;6.798;2024-03-29T12:50:41;2.05;;;0.90;;
2177;SDS011;1095;50.992;6.798;2024-03-29T12:53:09;1.38;;;0.75;;
2177;SDS011;1095;50.992;6.798;2024-03-29T12:55:37;0.95;;;0.80;;
2177;SDS011;1095;50.992;6.798;2024-03-29T12:58:07;1.48;;;1.00;;
2177;SDS011;1095;50.992;6.798;2024-03-29T13:00:37;2.13;;;0.88;;
2177;SDS011;1095;50.992;6.798;2024-03-29T13:03:04;0.40;;;0.40;;
2177;SDS011;1095;50.992;6.798;2024-03-29T13:05:31;0.60;;;0.60;;
2177;SDS011;1095;50.992;6.798;2024-03-29T13:08:00;0.70;;;0.70;;
2177;SDS011;1095;50.992;6.798;2024-03-29T13:10:28;0.60;;;0.50;;
2177;SDS011;1095;50.992;6.798;2024-03-29T13:12:54;0.57;;;0.45;;
2177;SDS011;1095;50.992;6.798;2024-03-29T13:15:22;2.83;;;0.50;;
2177;SDS011;1095;50.992;6.798;2024-03-29T13:17:51;2.03;;;0.50;;
2177;SDS011;1095;50.992;6.798;2024-03-29T13:20:19;0.77;;;0.70;;
2177;SDS011;1095;50.992;6.798;2024-03-29T13:22:47;0.93;;;0.60;;
2177;SDS011;1095;50.992;6.798;2024-03-29T13:25:15;0.50;;;0.50;;
2177;SDS011;1095;50.992;6.798;2024-03-29T13:27:43;0.70;;;0.70;;
2177;SDS011;1095;50.992;6.798;2024-03-29T13:30:11;1.00;;;0.90;;
2177;SDS011;1095;50.992;6.798;2024-03-29T13:32:39;1.80;;;0.85;;
2177;SDS011;1095;50.992;6.798;2024-03-29T13:35:08;1.10;;;0.65;;
2177;SDS011;1095;50.992;6.798;2024-03-29T13:37:36;1.35;;;0.85;;
2177;SDS011;1095;50.992;6.798;2024-03-29T13:40:04;0.98;;;0.88;;
2177;SDS011;1095;50.992;6.798;2024-03-29T13:42:32;0.65;;;0.65;;
2177;SDS011;1095;50.992;6.798;2024-03-29T13:44:59;0.75;;;0.63;;
2177;SDS011;1095;50.992;6.798;2024-03-29T13:47:25;2.08;;;0.75;;
2177;SDS011;1095;50.992;6.798;2024-03-29T13:49:52;0.90;;;0.75;;
2177;SDS011;1095;50.992;6.798;2024-03-29T13:52:22;5.22;;;3.55;;
2177;SDS011;1095;50.992;6.798;2024-03-29T13:54:49;4.15;;;2.55;;
2177;SDS011;1095;50.992;6.798;2024-03-29T13:57:16;0.55;;;0.55;;
2177;SDS011;1095;50.992;6.798;2024-03-29T13:59:43;0.80;;;0.70;;
2177;SDS011;1095;50.992;6.798;2024-03-29T14:02:10;0.63;;;0.40;;
2177;SDS011;1095;50.992;6.798;2024-03-29T14:04:38;0.80;;;0.75;;
2177;SDS011;1095;50.992;6.798;2024-03-29T14:07:05;2.70;;;0.93;;
2177;SDS011;1095;50.992;6.798;2024-03-29T14:09:35;1.25;;;0.82;;
2177;SDS011;1095;50.992;6.798;2024-03-29T14:12:02;3.38;;;0.75;;
2177;SDS011;1095;50.992;6.798;2024-03-29T14:14:29;1.08;;;0.60;;
2177;SDS011;1095;50.992;6.798;2024-03-29T14:16:58;2.00;;;0.90;;
2177;SDS011;1095;50.992;6.798;2024-03-29T14:19:29;1.13;;;0.77;;
2177;SDS011;1095;50.992;6.798;2024-03-29T14:21:56;0.80;;;0.80;;
2177;SDS011;1095;50.992;6.798;2024-03-29T14:24:22;0.80;;;0.80;;
2177;SDS011;1095;50.992;6.798;2024-03-29T14:26:51;1.20;;;0.85;;
2177;SDS011;1095;50.992;6.798;2024-03-29T14:29:17;1.23;;;1.00;;
2177;SDS011;1095;50.992;6.798;2024-03-29T14:31:46;1.73;;;1.15;;
2177;SDS011;1095;50.992;6.798;2024-03-29T14:34:13;2.05;;;0.80;;
2177;SDS011;1095;50.992;6.798;2024-03-29T14:36:39;1.30;;;1.20;;
2177;SDS011;1095;50.992;6.798;2024-03-29T14:39:06;2.42;;;0.88;;
2177;SDS011;1095;50.992;6.798;2024-03-29T14:41:33;1.67;;;1.27;;
2177;SDS011;1095;50.992;6.798;2024-03-29T14:44:03;1.13;;;1.02;;
2177;SDS011;1095;50.992;6.798;2024-03-29T14:46:29;1.15;;;0.68;;
2177;SDS011;1095;50.992;6.798;2024-03-29T14:48:56;2.83;;;1.05;;
2177;SDS011;1095;50.992;6.798;2024-03-29T14:51:23;5.00;;;1.10;;
2177;SDS011;1095;50.992;6.798;2024-03-29T14:53:49;2.00;;;0.98;;
2177;SDS011;1095;50.992;6.798;2024-03-29T14:56:16;0.80;;;0.77;;
2177;SDS011;1095;50.992;6.798;2024-03-29T14:58:43;1.77;;;1.27;;
2177;SDS011;1095;50.992;6.798;2024-03-29T15:01:11;1.25;;;0.93;;
2177;SDS011;1095;50.992;6.798;2024-03-29T15:03:38;1.88;;;0.75;;
2177;SDS011;1095;50.992;6.798;2024-03-29T15:06:04;0.90;;;0.63;;
2177;SDS011;1095;50.992;6.798;2024-03-29T15:08:31;1.98;;;1.23;;
2177;SDS011;1095;50.992;6.798;2024-03-29T15:10:58;2.80;;;1.10;;
2177;SDS011;1095;50.992;6.798;2024-03-29T15:13:25;2.30;;;1.15;;
2177;SDS011;1095;50.992;6.798;2024-03-29T15:15:53;3.25;;;1.60;;
2177;SDS011;1095;50.992;6.798;2024-03-29T15:18:21;2.60;;;1.42;;
2177;SDS011;1095;50.992;6.798;2024-03-29T15:20:53;1.02;;;1.00;;
2177;SDS011;1095;50.992;6.798;2024-03-29T15:23:20;2.33;;;1.92;;
2177;SDS011;1095;50.992;6.798;2024-03-29T15:25:49;2.50;;;1.10;;
2177;SDS011;1095;50.992;6.798;2024-03-29T15:28:16;1.98;;;1.17;;
2177;SDS011;1095;50.992;6.798;2024-03-29T15:31:06;1.38;;;1.13;;
2177;SDS011;1095;50.992;6.798;2024-03-29T15:33:35;2.13;;;1.00;;
2177;SDS011;1095;50.992;6.798;2024-03-29T15:36:02;2.08;;;1.50;;
2177;SDS011;1095;50.992;6.798;2024-03-29T15:38:44;3.67;;;1.33;;
2177;SDS011;1095;50.992;6.798;2024-03-29T15:41:21;1.88;;;1.33;;
2177;SDS011;1095;50.992;6.798;2024-03-29T15:44:06;2.45;;;1.20;;
2177;SDS011;1095;50.992;6.798;2024-03-29T15:46:36;4.35;;;1.38;;
2177;SDS011;1095;50.992;6.798;2024-03-29T15:49:48;2.45;;;1.48;;
2177;SDS011;1095;50.992;6.798;2024-03-29T15:52:37;1.35;;;0.90;;
2177;SDS011;1095;50.992;6.798;2024-03-29T15:55:33;4.85;;;1.48;;
2177;SDS011;1095;50.992;6.798;2024-03-29T15:58:00;4.30;;;1.38;;
2177;SDS011;1095;50.992;6.798;2024-03-29T16:00:35;2.03;;;1.48;;
2177;SDS011;1095;50.992;6.798;2024-03-29T16:03:15;5.20;;;1.70;;
2177;SDS011;1095;50.992;6.798;2024-03-29T16:05:53;2.08;;;1.70;;
2177;SDS011;1095;50.992;6.798;2024-03-29T16:08:36;2.08;;;1.50;;
2177;SDS011;1095;50.992;6.798;2024-03-29T16:11:04;3.15;;;1.67;;
2177;SDS011;1095;50.992;6.798;2024-03-29T16:16:12;1.80;;;1.60;;
2177;SDS011;1095;50.992;6.798;2024-03-29T16:18:39;1.90;;;1.23;;
2177;SDS011;1095;50.992;6.798;2024-03-29T16:21:06;1.42;;;1.17;;
2177;SDS011;1095;50.992;6.798;2024-03-29T16:23:48;1.33;;;1.15;;
2177;SDS011;1095;50.992;6.798;2024-03-29T16:26:13;1.25;;;0.98;;
2177;SDS011;1095;50.992;6.798;2024-03-29T16:28:40;2.28;;;1.60;;
2177;SDS011;1095;50.992;6.798;2024-03-29T16:31:06;2.88;;;1.70;;